Time;durP1;ratioP1;P1;durP2;ratioP2;P2;SDS_P1;SDS_P2;PMS_P1;PMS_P2;Temp;Humidity;BMP_temperature;BMP_pressure;BME280_temperature;BME280_humidity;BME280_pressure;Samples;Min_cycle;Max_cycle;Signal;HPM_P1;HPM_P2
2022/05/26 00:01:26;;;;;;;1.85;1.13;;;;;;;14.15;73.35;96681.09;5090055;28;20525;-78
2022/05/26 00:03:54;;;;;;;2.35;1.10;;;;;;;14.04;74.00;96684.25;5090385;28;20040;-77
2022/05/26 00:06:22;;;;;;;2.67;1.08;;;;;;;13.99;74.45;96678.13;5090292;28;20067;-77
2022/05/26 00:08:50;;;;;;;2.78;1.30;;;;;;;13.85;75.02;96678.41;5090596;28;20036;-77
2022/05/26 00:11:19;;;;;;;6.18;1.30;;;;;;;13.68;75.72;96689.44;5088864;28;20135;-78
2022/05/26 00:13:45;;;;;;;3.40;1.20;;;;;;;13.59;76.41;96681.28;5090536;28;20044;-77
2022/05/26 00:16:12;;;;;;;2.15;1.13;;;;;;;13.46;77.22;96693.22;5089828;28;20059;-77
2022/05/26 00:18:39;;;;;;;1.20;1.00;;;;;;;13.46;77.18;96696.75;5090411;28;20052;-78
2022/05/26 00:21:07;;;;;;;1.77;1.30;;;;;;;13.48;77.28;96685.50;5089960;28;20048;-77
2022/05/26 00:23:34;;;;;;;3.78;1.40;;;;;;;13.42;77.56;96695.03;5090438;28;20055;-76
2022/05/26 00:26:01;;;;;;;3.70;1.30;;;;;;;13.49;77.32;96698.06;5090150;28;20410;-77
2022/05/26 00:28:30;;;;;;;4.18;1.10;;;;;;;13.49;77.25;96698.06;5090164;28;20646;-77
2022/05/26 00:30:56;;;;;;;2.83;1.35;;;;;;;13.57;77.26;96699.94;5090371;28;20048;-77
2022/05/26 00:33:23;;;;;;;3.63;1.20;;;;;;;13.60;77.40;96699.28;5089714;28;20483;-78
2022/05/26 00:35:49;;;;;;;1.73;1.27;;;;;;;13.61;77.13;96692.69;5090127;28;20051;-77
2022/05/26 00:38:18;;;;;;;3.25;1.20;;;;;;;13.63;77.03;96706.84;5089705;28;20063;-78
2022/05/26 00:40:45;;;;;;;1.48;1.08;;;;;;;13.63;76.90;96706.84;5089721;28;20062;-78
2022/05/26 00:43:13;;;;;;;3.53;1.35;;;;;;;13.67;76.74;96701.50;5089456;28;20060;-78
2022/05/26 00:45:44;;;;;;;1.23;1.13;;;;;;;13.73;76.83;96698.28;5090264;28;20153;-79
2022/05/26 00:48:14;;;;;;;3.55;1.50;;;;;;;13.74;77.04;96705.34;5089341;28;20048;-77
2022/05/26 00:50:46;;;;;;;6.22;1.70;;;;;;;13.73;77.11;96698.28;5090092;28;20048;-77
2022/05/26 00:53:16;;;;;;;4.05;1.67;;;;;;;13.77;77.30;96693.72;5089527;28;20043;-78
2022/05/26 00:55:50;;;;;;;3.97;1.63;;;;;;;13.70;77.40;96682.50;5089832;28;20571;-78
2022/05/26 00:58:20;;;;;;;2.00;1.40;;;;;;;13.79;77.26;96686.00;5089515;28;20127;-77
2022/05/26 01:00:48;;;;;;;1.95;1.33;;;;;;;13.78;76.85;96691.78;5090068;28;20040;-77
2022/05/26 01:03:19;;;;;;;2.08;1.38;;;;;;;13.79;76.91;96683.25;5089423;28;20052;-77
2022/05/26 01:05:51;;;;;;;1.80;1.20;;;;;;;13.86;77.49;96684.69;5090038;28;20043;-79
2022/05/26 01:08:23;;;;;;;3.63;1.30;;;;;;;13.94;77.62;96681.06;5089368;28;20050;-77
2022/05/26 01:10:52;;;;;;;1.83;1.23;;;;;;;13.95;77.62;96671.75;5088743;28;20052;-79
2022/05/26 01:13:19;;;;;;;1.30;1.20;;;;;;;13.96;77.24;96679.63;5089343;28;20422;-78
2022/05/26 01:15:58;;;;;;;2.60;1.48;;;;;;;13.95;76.89;96686.22;5089936;28;20051;-78
2022/05/26 01:18:38;;;;;;;3.28;1.35;;;;;;;13.87;76.22;96691.75;5089309;28;20047;-78
2022/05/26 01:21:10;;;;;;;3.00;1.42;;;;;;;13.78;75.94;96689.88;5089325;28;20403;-78
2022/05/26 01:24:07;;;;;;;6.80;1.50;;;;;;;13.74;76.19;96694.41;5089971;28;20055;-77
2022/05/26 01:27:07;;;;;;;2.47;1.30;;;;;;;13.76;76.51;96692.13;5089159;28;20114;-77
2022/05/26 01:30:15;;;;;;;2.75;1.50;;;;;;;13.78;76.80;96689.06;5086215;28;20044;-78
2022/05/26 01:32:56;;;;;;;2.88;1.40;;;;;;;13.76;77.23;96697.59;5091689;28;20044;-77
2022/05/26 01:35:31;;;;;;;3.17;1.33;;;;;;;13.78;77.20;96695.34;5092253;28;20040;-77
2022/05/26 01:38:10;;;;;;;5.03;1.77;;;;;;;13.81;77.66;96705.63;5093536;28;20048;-78
2022/05/26 01:40:43;;;;;;;1.70;1.30;;;;;;;13.86;77.13;96707.38;5093442;28;20044;-77
2022/05/26 01:43:18;;;;;;;2.15;1.38;;;;;;;13.92;76.98;96702.50;5092325;28;20048;-78
2022/05/26 01:45:59;;;;;;;2.25;1.50;;;;;;;13.92;76.70;96708.00;5093549;28;20051;-79
2022/05/26 01:48:31;;;;;;;2.80;1.67;;;;;;;13.87;76.44;96702.69;5092853;28;20044;-77
2022/05/26 01:51:02;;;;;;;2.67;1.55;;;;;;;13.86;76.62;96703.84;5093532;28;20044;-77
2022/05/26 01:53:37;;;;;;;2.15;1.50;;;;;;;13.86;76.72;96709.31;5093012;28;20043;-77
2022/05/26 01:56:09;;;;;;;4.53;1.80;;;;;;;13.87;76.42;96710.91;5092646;28;20059;-78
2022/05/26 01:58:38;;;;;;;2.90;1.80;;;;;;;13.76;75.91;96708.53;5093219;28;20040;-77
2022/05/26 02:01:21;;;;;;;2.70;1.80;;;;;;;13.69;76.30;96713.75;5092671;28;20075;-77
2022/05/26 02:03:50;;;;;;;1.87;1.47;;;;;;;13.68;76.22;96711.34;5093351;28;20036;-76
2022/05/26 02:06:23;;;;;;;5.15;1.65;;;;;;;13.71;76.68;96711.47;5092656;28;20047;-77
2022/05/26 02:08:56;;;;;;;3.17;1.60;;;;;;;13.74;77.18;96710.81;5092962;28;20048;-78
2022/05/26 02:11:24;;;;;;;4.03;1.80;;;;;;;13.77;76.96;96709.34;5091079;28;20047;-78
2022/05/26 02:13:55;;;;;;;3.92;1.63;;;;;;;13.79;76.80;96707.91;5093023;28;20051;-77
2022/05/26 02:16:28;;;;;;;3.65;2.05;;;;;;;13.78;76.71;96700.81;5092517;28;20067;-78
2022/05/26 02:19:02;;;;;;;2.60;1.60;;;;;;;13.79;77.07;96707.91;5092639;28;20055;-78
2022/05/26 02:21:35;;;;;;;3.47;1.80;;;;;;;13.80;77.19;96704.03;5092613;28;20044;-77
2022/05/26 02:24:07;;;;;;;3.03;2.00;;;;;;;13.81;76.71;96702.88;5092343;28;20051;-76
2022/05/26 02:26:36;;;;;;;2.67;1.70;;;;;;;13.79;77.05;96705.16;5092291;28;20078;-77
2022/05/26 02:31:49;;;;;;;7.43;2.60;;;;;;;13.69;75.87;96699.25;5092722;28;20555;-78
2022/05/26 02:34:19;;;;;;;3.88;1.90;;;;;;;13.67;75.80;96699.56;5092206;28;20047;-77
2022/05/26 02:36:49;;;;;;;3.55;2.00;;;;;;;13.65;75.36;96701.03;5092354;28;20649;-77
2022/05/26 02:39:15;;;;;;;3.47;2.10;;;;;;;13.55;75.37;96710.41;5091790;28;20044;-77
2022/05/26 02:41:42;;;;;;;3.45;2.03;;;;;;;13.38;75.86;96707.75;5090991;28;20051;-77
2022/05/26 02:44:10;;;;;;;4.70;2.20;;;;;;;13.36;75.99;96699.06;5090596;28;20048;-79
2022/05/26 02:46:59;;;;;;;2.65;2.08;;;;;;;13.37;75.98;96695.22;5092305;28;20383;-79
2022/05/26 02:49:43;;;;;;;4.60;2.30;;;;;;;13.39;75.80;96692.94;5091925;28;20036;-78
2022/05/26 02:52:20;;;;;;;3.15;2.13;;;;;;;13.42;76.41;96704.03;5091730;28;20055;-77
2022/05/26 02:54:58;;;;;;;4.03;2.30;;;;;;;13.42;76.91;96693.09;5092194;28;20490;-78
2022/05/26 02:57:30;;;;;;;4.97;2.35;;;;;;;13.42;77.23;96709.50;5091610;28;20036;-77
2022/05/26 03:00:03;;;;;;;3.13;1.90;;;;;;;13.37;76.79;96712.44;5091969;28;20548;-79
2022/05/26 03:02:36;;;;;;;3.95;2.40;;;;;;;13.34;76.74;96712.28;5091648;28;20058;-77
2022/05/26 03:05:09;;;;;;;3.70;2.45;;;;;;;13.35;76.90;96719.34;5091387;28;20490;-79
2022/05/26 03:07:39;;;;;;;3.60;2.53;;;;;;;13.36;77.15;96726.41;5091578;28;20055;-76
2022/05/26 03:10:08;;;;;;;4.10;2.55;;;;;;;13.38;77.07;96729.63;5091486;28;20461;-77
2022/05/26 03:12:36;;;;;;;2.92;2.42;;;;;;;13.29;76.29;96722.25;5090500;28;20513;-77
2022/05/26 03:15:05;;;;;;;3.78;2.10;;;;;;;13.35;76.34;96719.34;5091078;28;20047;-78
2022/05/26 03:17:31;;;;;;;3.72;2.42;;;;;;;13.39;76.16;96723.03;5091566;28;20150;-77
2022/05/26 03:19:57;;;;;;;2.67;2.10;;;;;;;13.40;76.34;96724.63;5091545;28;20067;-77
2022/05/26 03:22:25;;;;;;;5.70;2.45;;;;;;;13.37;76.54;96733.50;5090957;28;20047;-78
2022/05/26 03:24:52;;;;;;;3.58;2.22;;;;;;;13.30;76.30;96723.84;5091516;28;20060;-77
2022/05/26 03:27:18;;;;;;;5.32;2.25;;;;;;;13.17;76.09;96729.50;5090651;28;20511;-77
2022/05/26 03:29:45;;;;;;;3.45;2.22;;;;;;;13.17;76.23;96724.84;5091453;28;20047;-79
2022/05/26 03:32:12;;;;;;;4.05;2.15;;;;;;;13.09;75.96;96722.91;5090773;28;20044;-78
2022/05/26 03:42:54;;;;;;;5.80;2.22;;;;;;;13.06;76.36;96748.19;5090163;28;20062;-77
2022/05/26 03:45:23;;;;;;;4.20;2.20;;;;;;;12.93;76.47;96751.88;5090683;28;20494;-77
2022/05/26 03:47:50;;;;;;;4.03;2.28;;;;;;;12.90;76.89;96753.34;5091029;28;20063;-78
2022/05/26 03:50:16;;;;;;;3.72;2.20;;;;;;;12.91;77.15;96762.34;5090529;28;20582;-78
2022/05/26 03:52:43;;;;;;;4.03;2.30;;;;;;;12.90;76.78;96764.28;5090822;28;20047;-77
2022/05/26 03:55:11;;;;;;;3.90;2.63;;;;;;;12.91;76.86;96765.09;5090186;28;20052;-79
2022/05/26 03:57:37;;;;;;;5.88;2.13;;;;;;;12.86;77.02;96765.25;5091031;28;20123;-77
2022/05/26 04:00:05;;;;;;;3.95;2.30;;;;;;;12.87;76.89;96764.91;5090334;28;20048;-78
2022/05/26 04:02:34;;;;;;;4.80;2.30;;;;;;;12.96;77.00;96773.13;5090871;28;20044;-77
2022/05/26 04:05:01;;;;;;;3.83;2.50;;;;;;;12.99;76.79;96772.47;5090915;28;20044;-77
2022/05/26 04:07:27;;;;;;;4.43;2.08;;;;;;;12.99;76.97;96778.72;5090371;28;20044;-77
2022/05/26 04:09:54;;;;;;;6.25;2.10;;;;;;;12.92;76.75;96777.63;5090713;28;20513;-77
2022/05/26 04:12:22;;;;;;;5.35;2.67;;;;;;;12.86;76.81;96784.38;5089060;28;20434;-77
2022/05/26 04:14:48;;;;;;;4.90;3.00;;;;;;;12.94;76.79;96791.75;5090600;28;20410;-76
2022/05/26 04:17:15;;;;;;;2.97;2.03;;;;;;;12.98;77.04;96792.72;5089967;28;20051;-77
2022/05/26 04:19:41;;;;;;;3.80;2.38;;;;;;;12.96;77.24;96792.25;5090555;28;20039;-78
2022/05/26 04:22:18;;;;;;;3.95;2.30;;;;;;;12.92;77.32;96794.03;5089974;28;20071;-77
2022/05/26 04:24:46;;;;;;;3.53;2.45;;;;;;;12.95;76.99;96798.84;5090585;28;20044;-78
2022/05/26 04:27:13;;;;;;;3.67;2.42;;;;;;;12.86;77.06;96800.78;5089592;28;20140;-76
2022/05/26 04:29:41;;;;;;;3.42;2.30;;;;;;;12.90;77.43;96801.75;5090358;28;20067;-78
2022/05/26 04:32:08;;;;;;;6.57;2.63;;;;;;;12.84;76.86;96803.00;5089760;28;20074;-77
2022/05/26 04:34:34;;;;;;;3.28;2.10;;;;;;;12.87;76.84;96807.84;5090389;28;20048;-78
2022/05/26 04:37:01;;;;;;;4.10;2.25;;;;;;;12.93;76.64;96806.56;5090260;28;20062;-77
2022/05/26 04:39:28;;;;;;;3.08;2.20;;;;;;;12.98;76.54;96809.13;5090062;28;20063;-77
2022/05/26 04:41:59;;;;;;;3.45;2.33;;;;;;;13.00;75.92;96806.88;5088970;28;20059;-78
2022/05/26 04:44:26;;;;;;;3.38;2.30;;;;;;;13.04;75.92;96811.38;5089710;28;20418;-77
2022/05/26 04:46:53;;;;;;;5.38;2.60;;;;;;;13.09;76.01;96815.06;5090048;28;20056;-77
2022/05/26 04:49:20;;;;;;;2.97;1.83;;;;;;;13.07;75.99;96815.41;5089441;28;20044;-77
2022/05/26 04:51:46;;;;;;;3.65;2.28;;;;;;;13.16;75.65;96818.94;5090119;28;20122;-77
2022/05/26 04:54:13;;;;;;;4.25;2.15;;;;;;;13.27;75.33;96822.19;5089378;28;20051;-77
2022/05/26 04:56:39;;;;;;;4.63;1.98;;;;;;;13.15;74.68;96825.50;5090136;28;20037;-79
2022/05/26 04:59:06;;;;;;;4.72;2.22;;;;;;;13.19;75.05;96826.47;5089242;28;20052;-78
2022/05/26 05:01:33;;;;;;;3.47;2.30;;;;;;;13.29;74.61;96833.59;5089900;28;20590;-77
2022/05/26 05:04:01;;;;;;;3.85;2.20;;;;;;;13.26;74.77;96836.97;5089929;28;20044;-77
2022/05/26 05:06:28;;;;;;;5.90;2.65;;;;;;;13.29;74.93;96831.66;5089815;28;20056;-77
2022/05/26 05:08:54;;;;;;;5.35;2.17;;;;;;;13.20;74.53;96841.75;5093878;28;20051;-77
2022/05/26 05:11:21;;;;;;;4.82;2.05;;;;;;;13.17;75.09;96845.16;5092259;28;20040;-77
2022/05/26 05:13:47;;;;;;;4.07;2.33;;;;;;;13.18;75.12;96845.97;5093787;28;20051;-78
2022/05/26 05:16:20;;;;;;;6.55;2.28;;;;;;;13.15;75.04;96839.19;5093501;28;20506;-78
2022/05/26 05:18:46;;;;;;;3.30;2.03;;;;;;;13.14;75.00;96840.31;5093822;28;20440;-79
2022/05/26 05:21:18;;;;;;;3.90;2.25;;;;;;;13.04;75.89;96855.09;5093287;28;20309;-77
2022/05/26 05:23:49;;;;;;;4.57;2.40;;;;;;;12.98;76.17;96853.66;5093652;28;20410;-78
2022/05/26 05:26:20;;;;;;;5.13;2.08;;;;;;;12.92;77.05;96848.69;5093116;28;20055;-78
2022/05/26 05:28:50;;;;;;;4.00;2.63;;;;;;;12.94;77.43;96854.63;5093583;28;20065;-79
2022/05/26 05:31:21;;;;;;;6.68;2.25;;;;;;;12.90;77.23;96857.22;5093014;28;20510;-77
2022/05/26 05:33:52;;;;;;;3.60;2.10;;;;;;;12.91;77.29;96858.03;5093697;28;20040;-76
2022/05/26 05:36:22;;;;;;;7.55;2.35;;;;;;;13.08;77.45;96849.81;5093240;28;20051;-77
2022/05/26 05:38:49;;;;;;;2.72;2.10;;;;;;;13.20;76.90;96855.44;5093723;28;20036;-77
2022/05/26 05:41:16;;;;;;;4.03;2.05;;;;;;;13.37;76.67;96860.13;5091616;28;20051;-77
2022/05/26 05:43:43;;;;;;;2.78;1.98;;;;;;;13.49;76.63;96859.47;5093473;28;20052;-79
2022/05/26 05:46:11;;;;;;;2.88;1.67;;;;;;;13.58;76.12;96860.28;5093163;28;20068;-78
2022/05/26 05:48:38;;;;;;;3.75;2.30;;;;;;;13.68;75.39;96864.59;5093191;28;20483;-78
2022/05/26 05:51:05;;;;;;;6.93;2.33;;;;;;;13.74;75.06;96869.56;5093168;28;20044;-77
2022/05/26 05:53:33;;;;;;;2.00;1.77;;;;;;;13.75;74.89;96882.13;5093472;28;20050;-78
2022/05/26 05:55:59;;;;;;;5.57;1.88;;;;;;;13.79;75.26;96877.59;5093319;28;20063;-77
2022/05/26 05:58:26;;;;;;;7.07;2.28;;;;;;;13.79;74.86;96885.03;5092736;28;20040;-77
2022/05/26 06:00:52;;;;;;;3.53;1.95;;;;;;;13.82;74.89;96882.41;5093333;28;20530;-76
2022/05/26 06:03:19;;;;;;;5.63;2.10;;;;;;;13.97;75.01;96888.50;5092546;28;20040;-77
2022/05/26 06:05:45;;;;;;;3.25;2.03;;;;;;;13.98;74.43;96893.63;5093040;28;20044;-76
2022/05/26 06:08:12;;;;;;;4.38;2.08;;;;;;;13.99;75.09;96891.69;5092500;28;20079;-77
2022/05/26 06:10:40;;;;;;;3.90;1.98;;;;;;;14.04;74.56;96891.53;5093083;28;20040;-78
2022/05/26 06:13:06;;;;;;;4.55;1.95;;;;;;;14.08;74.77;96892.50;5091407;28;20063;-78
2022/05/26 06:15:33;;;;;;;5.00;2.05;;;;;;;14.27;74.00;96887.44;5092925;28;20049;-79
2022/05/26 06:18:00;;;;;;;3.33;1.88;;;;;;;14.41;74.50;96889.97;5092544;28;20055;-77
2022/05/26 06:20:27;;;;;;;3.40;1.90;;;;;;;14.50;73.94;96892.66;5092429;28;20044;-79
2022/05/26 06:22:53;;;;;;;5.28;1.90;;;;;;;14.47;73.38;96896.06;5092698;28;20047;-77
2022/05/26 06:25:21;;;;;;;5.28;2.13;;;;;;;14.42;73.66;96893.50;5092293;28;20044;-77
2022/05/26 06:30:33;;;;;;;5.57;2.45;;;;;;;14.45;73.92;96898.31;5092702;28;20237;-77
2022/05/26 06:38:32;;;;;;;4.47;2.03;;;;;;;14.77;73.08;96905.09;5092368;28;20071;-77
2022/05/26 06:42:05;;;;;;;3.22;1.67;;;;;;;14.86;72.88;96908.59;5091216;28;20094;-78
2022/05/26 06:43:47;;;;;;;3.05;1.75;;;;;;;14.95;70.52;96914.03;5092081;28;20605;-77
2022/05/26 06:46:13;;;;;;;4.72;1.80;;;;;;;15.09;70.71;96911.84;5091934;28;20062;-76
2022/05/26 06:48:40;;;;;;;3.15;1.70;;;;;;;15.25;70.49;96915.59;5092400;28;20064;-78
2022/05/26 06:51:07;;;;;;;4.00;2.03;;;;;;;15.42;70.69;96914.66;5091982;28;20522;-76
2022/05/26 06:53:34;;;;;;;3.55;1.65;;;;;;;15.40;65.42;96916.94;5092071;28;20529;-79
2022/05/26 06:56:01;;;;;;;2.92;1.50;;;;;;;15.53;67.26;96923.28;5092335;28;20055;-80
2022/05/26 06:58:27;;;;;;;3.88;1.38;;;;;;;15.65;66.76;96926.91;5091703;28;20035;-79
2022/05/26 07:00:55;;;;;;;5.25;1.83;;;;;;;15.75;65.98;96911.97;5092020;28;20051;-77
2022/05/26 07:03:22;;;;;;;4.10;1.48;;;;;;;15.77;65.61;96915.19;5091535;28;20197;-77
2022/05/26 07:05:49;;;;;;;5.60;1.40;;;;;;;15.82;66.97;96923.22;5092269;28;20047;-77
2022/05/26 07:08:16;;;;;;;3.13;1.75;;;;;;;15.99;66.49;96926.94;5091329;28;20082;-78
2022/05/26 07:10:42;;;;;;;2.90;1.35;;;;;;;16.06;64.84;96932.66;5091617;28;20043;-78
2022/05/26 07:13:09;;;;;;;3.45;1.00;;;;;;;16.21;62.72;96925.72;5090532;28;20044;-76
2022/05/26 07:15:35;;;;;;;2.55;0.90;;;;;;;16.32;62.09;96933.19;5091685;28;20550;-78
2022/05/26 07:18:06;;;;;;;1.83;1.10;;;;;;;16.43;61.31;96926.09;5091409;28;20043;-78
2022/05/26 07:20:33;;;;;;;2.45;1.05;;;;;;;16.55;62.68;96922.56;5091841;28;20661;-77
2022/05/26 07:23:00;;;;;;;2.45;1.10;;;;;;;16.61;62.78;96925.91;5091769;28;20040;-78
2022/05/26 07:25:27;;;;;;;2.85;0.95;;;;;;;16.70;58.38;96934.81;5091253;28;20043;-78
2022/05/26 07:27:53;;;;;;;3.85;1.00;;;;;;;16.82;58.56;96929.38;5090523;28;20055;-78
2022/05/26 07:30:19;;;;;;;3.97;1.20;;;;;;;16.88;58.78;96927.97;5089153;28;20048;-76
2022/05/26 07:32:46;;;;;;;2.72;0.90;;;;;;;16.94;58.73;96934.84;5090576;28;20044;-78
2022/05/26 07:35:14;;;;;;;1.40;0.90;;;;;;;16.99;57.73;96930.28;5089943;28;20055;-79
2022/05/26 07:43:21;;;;;;;1.77;0.80;;;;;;;17.04;55.72;96933.59;5082390;28;20081;-78
2022/05/26 07:45:50;;;;;;;2.05;0.90;;;;;;;17.06;56.46;96930.47;5090300;28;20040;-78
2022/05/26 07:48:17;;;;;;;3.50;0.90;;;;;;;17.21;56.55;96940.78;5089667;28;20044;-79
2022/05/26 07:50:44;;;;;;;9.48;0.80;;;;;;;17.31;55.78;96926.53;5090118;28;20047;-77
2022/05/26 07:53:11;;;;;;;2.90;0.90;;;;;;;17.34;54.54;96922.31;5089790;28;20486;-78
2022/05/26 07:55:42;;;;;;;2.35;0.98;;;;;;;17.43;55.48;96918.25;5090239;28;20040;-78
2022/05/26 07:58:08;;;;;;;1.95;0.80;;;;;;;17.62;55.24;96919.56;5089542;28;20072;-78
2022/05/26 08:00:35;;;;;;;3.22;0.88;;;;;;;17.76;54.93;96924.72;5090054;28;20047;-77
2022/05/26 08:03:01;;;;;;;1.63;0.70;;;;;;;18.21;56.01;96918.84;5089516;28;20040;-76
2022/05/26 08:05:28;;;;;;;2.60;0.88;;;;;;;18.73;51.60;96926.09;5090102;28;20044;-77
2022/05/26 08:07:56;;;;;;;2.25;0.95;;;;;;;19.31;50.78;96920.75;5090069;28;20044;-78
2022/05/26 08:10:22;;;;;;;2.28;0.90;;;;;;;19.61;48.78;96923.00;5089316;28;20055;-78
2022/05/26 08:12:49;;;;;;;2.55;0.70;;;;;;;19.66;49.09;96925.47;5088541;28;20051;-78
2022/05/26 08:15:15;;;;;;;4.60;0.82;;;;;;;20.11;49.54;96932.31;5089375;28;20066;-78
2022/05/26 08:17:42;;;;;;;1.83;0.70;;;;;;;20.21;47.45;96934.47;5089648;28;20044;-77
2022/05/26 08:20:11;;;;;;;2.40;0.80;;;;;;;20.39;51.57;96924.50;5089349;28;20403;-78
2022/05/26 08:22:37;;;;;;;2.40;0.90;;;;;;;20.24;48.43;96917.94;5089733;28;20071;-79
2022/05/26 08:25:09;;;;;;;2.58;0.80;;;;;;;20.10;46.31;96927.91;5089231;28;20511;-78
2022/05/26 08:27:35;;;;;;;1.40;0.80;;;;;;;20.02;48.29;96922.25;5049182;28;1165538;-77
2022/05/26 08:30:02;;;;;;;3.17;0.70;;;;;;;19.84;46.76;96912.84;5089945;28;20056;-77
2022/05/26 08:32:28;;;;;;;2.03;0.85;;;;;;;19.84;47.72;96918.38;5090581;28;20407;-79
2022/05/26 08:34:58;;;;;;;1.85;0.80;;;;;;;19.79;47.12;96918.66;5090384;28;20070;-77
2022/05/26 08:37:24;;;;;;;7.72;0.95;;;;;;;19.82;48.71;96917.91;5089631;28;20071;-78
2022/05/26 08:39:51;;;;;;;3.78;0.90;;;;;;;19.60;50.26;96921.41;5090362;28;20040;-78
2022/05/26 08:42:22;;;;;;;2.33;0.70;;;;;;;19.87;51.11;96914.06;5088560;28;20055;-77
2022/05/26 08:44:50;;;;;;;3.45;1.08;;;;;;;19.80;47.58;96918.28;5090239;28;20458;-77
2022/05/26 08:47:20;;;;;;;2.33;0.90;;;;;;;19.70;48.56;96920.84;5089425;28;20051;-78
2022/05/26 08:49:51;;;;;;;1.92;0.90;;;;;;;19.79;49.07;96921.41;5090095;28;20089;-77
2022/05/26 08:52:21;;;;;;;2.40;1.10;;;;;;;19.81;48.56;96922.63;5089720;28;20055;-78
2022/05/26 08:54:54;;;;;;;4.63;1.08;;;;;;;19.96;49.39;96929.25;5090313;28;20051;-78
2022/05/26 08:57:27;;;;;;;2.13;0.70;;;;;;;20.08;48.27;96926.31;5089507;28;20044;-79
2022/05/26 08:59:53;;;;;;;4.13;0.88;;;;;;;20.07;47.75;96924.72;5090072;28;20055;-77
2022/05/26 09:02:26;;;;;;;3.25;1.05;;;;;;;20.16;51.46;96932.00;5089495;28;20059;-78
2022/05/26 09:04:54;;;;;;;;;;;;;;;20.36;48.92;96944.63;5090593;28;20044;-77
2022/05/26 09:12:59;;;;;;;3.75;0.90;;;;;;;20.43;49.18;96935.66;5088695;28;20047;-78
2022/05/26 09:15:27;;;;;;;0.88;0.70;;;;;;;20.67;46.94;96940.84;5089396;28;20044;-77
2022/05/26 09:17:53;;;;;;;2.72;0.70;;;;;;;20.71;46.86;96940.91;5089921;28;20567;-80
2022/05/26 09:20:42;;;;;;;1.92;0.80;;;;;;;20.73;49.21;96933.03;5089412;28;20694;-77
2022/05/26 09:23:12;;;;;;;1.45;0.60;;;;;;;20.65;44.96;96947.91;5084700;28;20406;-78
2022/05/26 09:25:45;;;;;;;2.53;0.90;;;;;;;20.65;46.08;96939.63;5089680;28;20494;-79
2022/05/26 09:28:14;;;;;;;2.97;0.60;;;;;;;20.81;45.92;96934.75;5089493;28;20063;-79
2022/05/26 09:30:41;;;;;;;3.10;0.60;;;;;;;21.02;45.02;96939.81;5089884;28;20051;-76
2022/05/26 09:33:19;;;;;;;1.95;0.63;;;;;;;21.14;44.14;96942.38;5089352;28;20056;-78
2022/05/26 09:35:46;;;;;;;3.15;0.70;;;;;;;21.10;46.63;96942.34;5089908;28;20059;-78
2022/05/26 09:38:17;;;;;;;3.70;0.60;;;;;;;21.19;44.09;96944.03;5089122;28;20097;-77
2022/05/26 09:40:46;;;;;;;1.92;0.60;;;;;;;21.25;43.33;96948.91;5089263;28;20047;-78
2022/05/26 09:43:25;;;;;;;2.72;0.70;;;;;;;21.25;43.20;96939.78;5088892;28;20052;-78
2022/05/26 09:45:54;;;;;;;1.15;0.50;;;;;;;21.14;45.34;96944.34;5089624;28;20043;-79
2022/05/26 09:48:26;;;;;;;1.70;0.50;;;;;;;21.30;47.51;96950.59;5089158;28;20067;-79
2022/05/26 09:51:04;;;;;;;3.25;0.70;;;;;;;20.96;43.38;96939.34;5089666;28;20128;-78
2022/05/26 09:53:34;;;;;;;1.60;0.75;;;;;;;20.62;45.71;96948.66;5090966;28;20479;-78
2022/05/26 09:56:01;;;;;;;1.50;0.63;;;;;;;20.59;44.76;96950.19;5093258;28;20048;-79
2022/05/26 09:58:31;;;;;;;2.13;0.70;;;;;;;20.40;45.57;96953.78;5092925;28;20043;-78
2022/05/26 10:01:00;;;;;;;2.53;0.70;;;;;;;20.03;45.17;96951.50;5093367;28;20055;-80
2022/05/26 10:03:34;;;;;;;2.30;0.82;;;;;;;20.05;46.08;96953.91;5092856;28;20048;-77
2022/05/26 10:06:15;;;;;;;1.73;0.80;;;;;;;20.10;48.19;96950.03;5093306;28;20055;-80
2022/05/26 10:08:54;;;;;;;2.00;0.70;;;;;;;20.03;48.49;96953.47;5092900;28;20395;-79
2022/05/26 10:11:49;;;;;;;1.58;0.65;;;;;;;19.88;45.33;96951.56;5091330;28;20039;-78
2022/05/26 10:14:32;;;;;;;1.73;0.77;;;;;;;19.90;47.93;96946.50;5089970;28;20047;-78
2022/05/26 10:17:07;;;;;;;2.17;0.60;;;;;;;19.52;45.82;96954.38;5093010;28;20499;-79
2022/05/26 10:19:52;;;;;;;1.63;0.80;;;;;;;19.42;47.42;96951.34;5092706;28;20047;-79
2022/05/26 10:22:42;;;;;;;1.05;0.63;;;;;;;19.50;47.48;96944.84;5092623;28;20043;-76
2022/05/26 10:25:24;;;;;;;5.18;0.77;;;;;;;19.52;48.51;96956.31;5092345;28;20135;-78
2022/05/26 10:28:31;;;;;;;4.85;0.90;;;;;;;19.59;48.87;96939.13;5092528;28;20043;-78
2022/05/26 10:31:09;;;;;;;2.97;0.88;;;;;;;19.48;47.60;96949.94;5059205;28;20048;-79
2022/05/26 10:33:53;;;;;;;2.03;1.10;;;;;;;19.45;48.57;96945.94;5092771;28;20047;-78
2022/05/26 10:36:24;;;;;;;2.20;0.80;;;;;;;19.64;49.34;96944.38;5092332;28;20044;-79
2022/05/26 10:39:06;;;;;;;1.50;0.68;;;;;;;20.00;50.30;96935.66;5092506;28;20071;-78
2022/05/26 10:41:38;;;;;;;3.20;1.65;;;;;;;19.96;46.74;96945.84;5091400;28;20044;-76
2022/05/26 10:44:15;;;;;;;2.43;0.80;;;;;;;19.84;49.05;96948.75;5092270;28;20055;-78
2022/05/26 10:46:46;;;;;;;1.45;0.80;;;;;;;19.80;49.11;96942.34;5092496;28;20276;-78
2022/05/26 10:49:18;;;;;;;2.05;0.70;;;;;;;20.03;51.71;96940.44;5091762;28;20103;-77
2022/05/26 10:51:48;;;;;;;5.45;0.70;;;;;;;20.08;47.80;96948.44;5092539;28;20044;-77
2022/05/26 10:54:20;;;;;;;2.22;0.80;;;;;;;20.37;52.30;96946.22;5092027;28;20051;-78
2022/05/26 10:56:53;;;;;;;2.60;0.80;;;;;;;20.47;48.29;96942.09;5092476;28;20518;-77
2022/05/26 10:59:24;;;;;;;2.80;0.80;;;;;;;20.40;48.19;96955.75;5091979;28;20499;-78
2022/05/26 11:01:56;;;;;;;1.63;0.85;;;;;;;20.14;47.31;96951.69;5092342;28;20217;-78
2022/05/26 11:04:30;;;;;;;4.07;0.90;;;;;;;19.79;48.57;96946.28;5090751;28;20406;-77
2022/05/26 11:07:01;;;;;;;1.17;0.57;;;;;;;19.68;51.00;96939.72;5092824;28;20044;-77
2022/05/26 11:09:37;;;;;;;2.67;0.50;;;;;;;19.77;50.77;96937.53;5091402;28;20040;-77
2022/05/26 11:12:08;;;;;;;3.05;0.90;;;;;;;19.92;48.48;96939.44;5090490;28;20044;-78
2022/05/26 11:17:39;;;;;;;2.30;0.60;;;;;;;20.16;47.26;96926.47;5091367;28;20235;-77
2022/05/26 11:20:09;;;;;;;4.18;0.65;;;;;;;20.30;48.35;96921.19;5091238;28;20048;-77
2022/05/26 11:22:36;;;;;;;1.75;0.73;;;;;;;20.61;48.54;96924.91;5091512;28;20549;-79
2022/05/26 11:25:03;;;;;;;2.08;0.70;;;;;;;20.75;45.03;96930.69;5091319;28;20077;-78
2022/05/26 11:27:35;;;;;;;3.80;0.60;;;;;;;20.84;46.16;96920.97;5091530;28;20453;-79
2022/05/26 11:30:06;;;;;;;2.35;0.52;;;;;;;21.10;48.35;96919.41;5090981;28;20135;-78
2022/05/26 11:38:20;;;;;;;1.77;0.70;;;;;;;21.49;46.55;96917.19;5090769;28;20059;-78
2022/05/26 11:40:53;;;;;;;1.48;0.63;;;;;;;21.29;46.18;96921.22;5090288;28;20051;-77
2022/05/26 11:43:28;;;;;;;2.38;1.05;;;;;;;21.13;44.54;96917.84;5070490;28;20048;-78
2022/05/26 11:45:56;;;;;;;1.10;0.60;;;;;;;20.57;45.06;96922.91;5070901;28;20060;-78
2022/05/26 11:48:42;;;;;;;2.13;0.55;;;;;;;20.55;44.39;96911.38;5070330;28;20403;-77
2022/05/26 11:51:39;;;;;;;3.88;0.80;;;;;;;20.55;45.70;96913.34;5070061;28;20040;-77
2022/05/26 11:54:07;;;;;;;3.03;1.30;;;;;;;20.28;46.76;96918.00;5063753;28;20056;-77
2022/05/26 11:56:46;;;;;;;1.25;0.70;;;;;;;20.21;47.07;96910.38;5070630;28;20413;-78
2022/05/26 11:59:43;;;;;;;1.67;0.82;;;;;;;20.51;48.52;96915.25;5070181;28;20048;-79
2022/05/26 12:02:16;;;;;;;1.80;0.65;;;;;;;20.53;47.52;96921.25;5070089;28;20406;-77
2022/05/26 12:04:45;;;;;;;0.88;0.60;;;;;;;20.67;47.71;96912.38;5070764;28;20045;-78
2022/05/26 12:07:35;;;;;;;0.80;0.60;;;;;;;20.67;47.04;96906.81;5069654;28;20048;-77
2022/05/26 12:10:18;;;;;;;1.67;0.50;;;;;;;20.84;46.14;96904.38;5070012;28;20051;-77
2022/05/26 12:12:45;;;;;;;3.35;0.70;;;;;;;20.89;43.07;96908.00;5086728;28;20044;-76
2022/05/26 12:15:19;;;;;;;1.50;0.60;;;;;;;20.85;44.61;96902.41;5090289;28;20071;-79
2022/05/26 12:17:48;;;;;;;1.95;0.70;;;;;;;20.90;44.38;96901.28;5090440;28;20051;-78
2022/05/26 12:20:32;;;;;;;2.25;0.60;;;;;;;21.03;45.75;96903.44;5089953;28;20056;-80
2022/05/26 12:23:19;;;;;;;2.00;0.60;;;;;;;21.04;47.36;96899.53;5090488;28;20074;-78
2022/05/26 12:25:46;;;;;;;2.88;0.70;;;;;;;20.97;45.03;96904.94;5090550;28;20044;-80
2022/05/26 12:28:29;;;;;;;1.45;0.60;;;;;;;21.02;44.75;96890.78;5089828;28;20040;-79
2022/05/26 12:31:14;;;;;;;4.72;0.70;;;;;;;21.13;43.75;96890.13;5090354;28;20051;-79